TCX57TH EGPH-EGSS
Flight info
| Callsign | TCX57TH |
|---|---|
| Flight time | 0h 47m |
| Altitude | 33000 |
| Route | GOSAM P600 FENIK L612 NAVSO DCT AKOMU DCT VAMEB UL612 LISTO |
| Aircraft | A321/M-SDE3FGHIRWY/LB1 |
Departure
| Time | 2026-05-04 12:34 |
|---|---|
| Airport | Edinburgh Airport (EGPH) |
Arrival
| Time | 2026-05-04 13:21 |
|---|---|
| Airport | London Stansted Airport (EGSS) |
| Time | Latitude | Longitude | Altitude | Speed | Heading |
|---|---|---|---|---|---|
| 2026-05-04 12:14 | 55.94965 | -3.36287 | 112 ft | 0 kts | 149° |
| 2026-05-04 12:25 | 55.94983 | -3.36306 | 114 ft | 4 kts | 149° |
| 2026-05-04 12:26 | 55.95003 | -3.36327 | 116 ft | 4 kts | 143° |
| 2026-05-04 12:26 | 55.95019 | -3.36360 | 115 ft | 4 kts | 101° |
| 2026-05-04 12:26 | 55.95018 | -3.36405 | 113 ft | 2 kts | 75° |
| 2026-05-04 12:26 | 55.95016 | -3.36416 | 116 ft | 0 kts | 74° |
| 2026-05-04 12:29 | 55.95018 | -3.36405 | 116 ft | 4 kts | 70° |
| 2026-05-04 12:29 | 55.95060 | -3.36394 | 113 ft | 11 kts | 358° |
| 2026-05-04 12:29 | 55.95119 | -3.36328 | 113 ft | 10 kts | 56° |
| 2026-05-04 12:29 | 55.95168 | -3.36181 | 114 ft | 18 kts | 59° |
| 2026-05-04 12:30 | 55.95231 | -3.35996 | 113 ft | 17 kts | 59° |
| 2026-05-04 12:30 | 55.95290 | -3.35819 | 116 ft | 16 kts | 58° |
| 2026-05-04 12:30 | 55.95348 | -3.35651 | 113 ft | 15 kts | 58° |
| 2026-05-04 12:30 | 55.95401 | -3.35493 | 112 ft | 14 kts | 59° |
| 2026-05-04 12:31 | 55.95448 | -3.35397 | 116 ft | 8 kts | 5° |
| 2026-05-04 12:31 | 55.95487 | -3.35427 | 116 ft | 0 kts | 330° |
| 2026-05-04 12:32 | 55.95501 | -3.35442 | 116 ft | 7 kts | 330° |
| 2026-05-04 12:32 | 55.95552 | -3.35616 | 113 ft | 6 kts | 238° |
| 2026-05-04 12:32 | 55.95552 | -3.35618 | 113 ft | 0 kts | 238° |
| 2026-05-04 12:33 | 55.95531 | -3.35680 | 113 ft | 24 kts | 239° |
| 2026-05-04 12:33 | 55.95306 | -3.36347 | 111 ft | 97 kts | 239° |
| 2026-05-04 12:34 | 55.94856 | -3.37682 | 115 ft | 151 kts | 239° |
| 2026-05-04 12:34 | 55.94295 | -3.39350 | 674 ft | 153 kts | 239° |
| 2026-05-04 12:34 | 55.93729 | -3.40928 | 1422 ft | 151 kts | 238° |
| 2026-05-04 12:34 | 55.93144 | -3.42515 | 1994 ft | 157 kts | 237° |
| 2026-05-04 12:35 | 55.92513 | -3.44197 | 2349 ft | 171 kts | 237° |
| 2026-05-04 12:35 | 55.91858 | -3.46052 | 2720 ft | 185 kts | 242° |
| 2026-05-04 12:35 | 55.91205 | -3.48163 | 2952 ft | 203 kts | 242° |
| 2026-05-04 12:35 | 55.90579 | -3.50509 | 3297 ft | 217 kts | 252° |
| 2026-05-04 12:36 | 55.90240 | -3.53267 | 3548 ft | 241 kts | 260° |
| 2026-05-04 12:36 | 55.89947 | -3.56309 | 4101 ft | 254 kts | 259° |
| 2026-05-04 12:36 | 55.89624 | -3.59454 | 4839 ft | 260 kts | 259° |
| 2026-05-04 12:36 | 55.89293 | -3.62621 | 5700 ft | 261 kts | 259° |
| 2026-05-04 12:37 | 55.88961 | -3.65823 | 6457 ft | 265 kts | 259° |
| 2026-05-04 12:37 | 55.88629 | -3.69074 | 7213 ft | 268 kts | 260° |
| 2026-05-04 12:37 | 55.88293 | -3.72364 | 7941 ft | 272 kts | 260° |
| 2026-05-04 12:37 | 55.87951 | -3.75717 | 8653 ft | 276 kts | 260° |
| 2026-05-04 12:38 | 55.87606 | -3.79097 | 9352 ft | 280 kts | 260° |
| 2026-05-04 12:38 | 55.87263 | -3.82532 | 10037 ft | 283 kts | 261° |
| 2026-05-04 12:38 | 55.86915 | -3.86096 | 10339 ft | 302 kts | 261° |
| 2026-05-04 12:38 | 55.86545 | -3.89910 | 10478 ft | 324 kts | 261° |
| 2026-05-04 12:39 | 55.86282 | -3.92586 | 10563 ft | 337 kts | 261° |
| 2026-05-04 12:39 | 55.85866 | -3.96774 | 10969 ft | 347 kts | 261° |
| 2026-05-04 12:39 | 55.85439 | -4.01026 | 11571 ft | 351 kts | 261° |
| 2026-05-04 12:39 | 55.84862 | -4.06731 | 12409 ft | 355 kts | 261° |
| 2026-05-04 12:40 | 55.84230 | -4.10991 | 12998 ft | 360 kts | 248° |
| 2026-05-04 12:40 | 55.83395 | -4.13616 | 13377 ft | 364 kts | 235° |
| 2026-05-04 12:40 | 55.81575 | -4.16789 | 13921 ft | 371 kts | 217° |
| 2026-05-04 12:40 | 55.79443 | -4.19403 | 14478 ft | 374 kts | 216° |
| 2026-05-04 12:41 | 55.77267 | -4.22006 | 15009 ft | 378 kts | 213° |
| 2026-05-04 12:41 | 55.74878 | -4.24030 | 15517 ft | 384 kts | 201° |
| 2026-05-04 12:41 | 55.72258 | -4.25121 | 16018 ft | 389 kts | 188° |
| 2026-05-04 12:41 | 55.69577 | -4.25157 | 16490 ft | 394 kts | 175° |
| 2026-05-04 12:42 | 55.66882 | -4.24102 | 16946 ft | 399 kts | 162° |
| 2026-05-04 12:42 | 55.64325 | -4.22144 | 17415 ft | 402 kts | 152° |
| 2026-05-04 12:42 | 55.61878 | -4.19721 | 17838 ft | 405 kts | 151° |
| 2026-05-04 12:42 | 55.59406 | -4.17284 | 18261 ft | 407 kts | 151° |
| 2026-05-04 12:43 | 55.56919 | -4.14852 | 18667 ft | 410 kts | 152° |
| 2026-05-04 12:43 | 55.54420 | -4.12422 | 19056 ft | 412 kts | 152° |
| 2026-05-04 12:43 | 55.51902 | -4.09974 | 19446 ft | 414 kts | 152° |
| 2026-05-04 12:43 | 55.49369 | -4.07511 | 19815 ft | 417 kts | 152° |
| 2026-05-04 12:44 | 55.46822 | -4.05038 | 20197 ft | 419 kts | 151° |
| 2026-05-04 12:44 | 55.44262 | -4.02551 | 20578 ft | 421 kts | 151° |
| 2026-05-04 12:44 | 55.41690 | -4.00055 | 20938 ft | 423 kts | 151° |
| 2026-05-04 12:44 | 55.39103 | -3.97545 | 21305 ft | 426 kts | 151° |
| 2026-05-04 12:45 | 55.36403 | -3.94930 | 21685 ft | 428 kts | 151° |
| 2026-05-04 12:45 | 55.31165 | -3.89874 | 22434 ft | 433 kts | 151° |
| 2026-05-04 12:45 | 55.25851 | -3.84777 | 23167 ft | 437 kts | 151° |
| 2026-05-04 12:45 | 55.20472 | -3.79682 | 23874 ft | 441 kts | 152° |
| 2026-05-04 12:46 | 55.14940 | -3.74865 | 24539 ft | 446 kts | 154° |
| 2026-05-04 12:46 | 55.09303 | -3.70155 | 25199 ft | 450 kts | 154° |
| 2026-05-04 12:46 | 55.03723 | -3.65452 | 25845 ft | 453 kts | 154° |
| 2026-05-04 12:46 | 54.98052 | -3.60609 | 26463 ft | 456 kts | 153° |
| 2026-05-04 12:47 | 54.92334 | -3.55714 | 27074 ft | 459 kts | 153° |
| 2026-05-04 12:47 | 54.86570 | -3.50818 | 27642 ft | 462 kts | 153° |
| 2026-05-04 12:47 | 54.80759 | -3.45916 | 28133 ft | 466 kts | 153° |
| 2026-05-04 12:47 | 54.74911 | -3.41000 | 28610 ft | 468 kts | 153° |
| 2026-05-04 12:48 | 54.69035 | -3.36068 | 29029 ft | 470 kts | 153° |
| 2026-05-04 12:48 | 54.63142 | -3.31130 | 29514 ft | 470 kts | 153° |
| 2026-05-04 12:48 | 54.57282 | -3.26235 | 30045 ft | 468 kts | 153° |
| 2026-05-04 12:48 | 54.51424 | -3.21363 | 30547 ft | 467 kts | 153° |
| 2026-05-04 12:49 | 54.45584 | -3.16519 | 31097 ft | 465 kts | 153° |
| 2026-05-04 12:49 | 54.39777 | -3.11717 | 31632 ft | 463 kts | 153° |
| 2026-05-04 12:49 | 54.33975 | -3.06946 | 32146 ft | 461 kts | 153° |
| 2026-05-04 12:49 | 54.28176 | -3.02190 | 32659 ft | 460 kts | 153° |
| 2026-05-04 12:50 | 54.22411 | -2.97469 | 33064 ft | 458 kts | 153° |
| 2026-05-04 12:50 | 54.11004 | -2.88485 | 33073 ft | 450 kts | 155° |
| 2026-05-04 12:51 | 53.99430 | -2.80294 | 33081 ft | 450 kts | 155° |
| 2026-05-04 12:51 | 53.88000 | -2.72018 | 33082 ft | 448 kts | 155° |
| 2026-05-04 12:52 | 53.76536 | -2.63760 | 33082 ft | 447 kts | 155° |
| 2026-05-04 12:52 | 53.65075 | -2.55600 | 33080 ft | 447 kts | 155° |
| 2026-05-04 12:53 | 53.53592 | -2.47432 | 33077 ft | 447 kts | 155° |
| 2026-05-04 12:53 | 53.42140 | -2.39354 | 33075 ft | 447 kts | 155° |
| 2026-05-04 12:54 | 53.30679 | -2.31294 | 33073 ft | 446 kts | 156° |
| 2026-05-04 12:54 | 53.19240 | -2.23298 | 33071 ft | 445 kts | 156° |
| 2026-05-04 12:55 | 53.08645 | -2.12941 | 33071 ft | 442 kts | 142° |
| 2026-05-04 12:55 | 52.98697 | -2.00878 | 33065 ft | 443 kts | 143° |
| 2026-05-04 12:56 | 52.88728 | -1.88830 | 33065 ft | 443 kts | 143° |
| 2026-05-04 12:56 | 52.78760 | -1.76843 | 33043 ft | 445 kts | 144° |
| 2026-05-04 12:57 | 52.68119 | -1.66309 | 32945 ft | 449 kts | 152° |
| 2026-05-04 12:57 | 52.62499 | -1.61486 | 30450 ft | 458 kts | 152° |
| 2026-05-04 12:57 | 52.56804 | -1.56599 | 27730 ft | 473 kts | 153° |
| 2026-05-04 12:57 | 52.51094 | -1.51718 | 25576 ft | 452 kts | 153° |
| 2026-05-04 12:58 | 52.45530 | -1.46977 | 23431 ft | 446 kts | 153° |
| 2026-05-04 12:58 | 52.40128 | -1.42387 | 22207 ft | 430 kts | 153° |
| 2026-05-04 12:58 | 52.35419 | -1.38404 | 21213 ft | 415 kts | 153° |
| 2026-05-04 12:58 | 52.32873 | -1.36254 | 20706 ft | 406 kts | 153° |
| 2026-05-04 12:59 | 52.30389 | -1.34157 | 20207 ft | 397 kts | 153° |
| 2026-05-04 12:59 | 52.27971 | -1.32070 | 19767 ft | 391 kts | 152° |
| 2026-05-04 12:59 | 52.25579 | -1.29870 | 19374 ft | 397 kts | 150° |
| 2026-05-04 12:59 | 52.23195 | -1.27594 | 18962 ft | 396 kts | 150° |
| 2026-05-04 13:00 | 52.20829 | -1.25302 | 18563 ft | 394 kts | 150° |
| 2026-05-04 13:00 | 52.18481 | -1.23032 | 18157 ft | 392 kts | 150° |
| 2026-05-04 13:00 | 52.16135 | -1.20789 | 17757 ft | 390 kts | 150° |
| 2026-05-04 13:00 | 52.13804 | -1.18590 | 17356 ft | 387 kts | 151° |
| 2026-05-04 13:01 | 52.11471 | -1.16411 | 16944 ft | 385 kts | 151° |
| 2026-05-04 13:01 | 52.09151 | -1.14251 | 16563 ft | 384 kts | 151° |
| 2026-05-04 13:01 | 52.06836 | -1.12093 | 16168 ft | 382 kts | 151° |
| 2026-05-04 13:01 | 52.04553 | -1.09904 | 15780 ft | 380 kts | 146° |
| 2026-05-04 13:02 | 52.02579 | -1.07154 | 15393 ft | 379 kts | 133° |
| 2026-05-04 13:02 | 52.01044 | -1.03691 | 15012 ft | 378 kts | 119° |
| 2026-05-04 13:02 | 52.00057 | -0.99747 | 14694 ft | 378 kts | 105° |
| 2026-05-04 13:02 | 51.99661 | -0.95491 | 14369 ft | 376 kts | 91° |
| 2026-05-04 13:03 | 51.99667 | -0.91263 | 14043 ft | 375 kts | 90° |
| 2026-05-04 13:03 | 51.99676 | -0.87092 | 13723 ft | 373 kts | 90° |
| 2026-05-04 13:03 | 51.99678 | -0.82888 | 13406 ft | 371 kts | 90° |
| 2026-05-04 13:03 | 51.99674 | -0.78705 | 13081 ft | 370 kts | 90° |
| 2026-05-04 13:04 | 51.99665 | -0.74539 | 12770 ft | 368 kts | 90° |
| 2026-05-04 13:04 | 51.99655 | -0.70393 | 12454 ft | 366 kts | 90° |
| 2026-05-04 13:04 | 51.99646 | -0.66257 | 12139 ft | 365 kts | 90° |
| 2026-05-04 13:04 | 51.99636 | -0.62157 | 11830 ft | 360 kts | 90° |
| 2026-05-04 13:05 | 51.99624 | -0.58183 | 11676 ft | 344 kts | 90° |
| 2026-05-04 13:05 | 51.99611 | -0.54390 | 11549 ft | 329 kts | 90° |
| 2026-05-04 13:05 | 51.99600 | -0.50765 | 11423 ft | 314 kts | 90° |
| 2026-05-04 13:05 | 51.99588 | -0.47303 | 11285 ft | 301 kts | 90° |
| 2026-05-04 13:06 | 51.99576 | -0.43941 | 10972 ft | 295 kts | 90° |
| 2026-05-04 13:06 | 51.99564 | -0.40624 | 10573 ft | 293 kts | 90° |
| 2026-05-04 13:06 | 51.99548 | -0.37332 | 10165 ft | 291 kts | 91° |
| 2026-05-04 13:06 | 51.99518 | -0.34058 | 9753 ft | 289 kts | 91° |
| 2026-05-04 13:07 | 51.99479 | -0.30816 | 9343 ft | 287 kts | 91° |
| 2026-05-04 13:07 | 51.99437 | -0.27597 | 9069 ft | 284 kts | 91° |
| 2026-05-04 13:07 | 51.99394 | -0.24379 | 9050 ft | 285 kts | 91° |
| 2026-05-04 13:07 | 51.99348 | -0.21206 | 8971 ft | 284 kts | 92° |
| 2026-05-04 13:08 | 51.99304 | -0.18013 | 8542 ft | 282 kts | 91° |
| 2026-05-04 13:08 | 51.99263 | -0.14834 | 8114 ft | 281 kts | 91° |
| 2026-05-04 13:08 | 51.99221 | -0.11665 | 7698 ft | 279 kts | 91° |
| 2026-05-04 13:08 | 51.99178 | -0.08535 | 7282 ft | 277 kts | 91° |
| 2026-05-04 13:09 | 51.99140 | -0.05430 | 7045 ft | 275 kts | 89° |
| 2026-05-04 13:09 | 51.99545 | -0.02418 | 7040 ft | 276 kts | 66° |
| 2026-05-04 13:09 | 52.00416 | 0.00372 | 7043 ft | 276 kts | 62° |
| 2026-05-04 13:09 | 52.01305 | 0.03017 | 7040 ft | 258 kts | 61° |
| 2026-05-04 13:10 | 52.02144 | 0.05488 | 7041 ft | 245 kts | 61° |
| 2026-05-04 13:10 | 52.02949 | 0.07909 | 7042 ft | 243 kts | 66° |
| 2026-05-04 13:10 | 52.03244 | 0.10563 | 7045 ft | 242 kts | 97° |
| 2026-05-04 13:10 | 52.02674 | 0.13092 | 6859 ft | 239 kts | 124° |
| 2026-05-04 13:11 | 52.01661 | 0.15224 | 6500 ft | 239 kts | 130° |
| 2026-05-04 13:11 | 52.00582 | 0.17272 | 6171 ft | 238 kts | 131° |
| 2026-05-04 13:11 | 51.99502 | 0.19284 | 6013 ft | 236 kts | 131° |
| 2026-05-04 13:11 | 51.98340 | 0.21163 | 6009 ft | 236 kts | 148° |
| 2026-05-04 13:12 | 51.96796 | 0.21977 | 5936 ft | 235 kts | 179° |
| 2026-05-04 13:12 | 51.95235 | 0.21385 | 5598 ft | 233 kts | 212° |
| 2026-05-04 13:12 | 51.94100 | 0.19563 | 5243 ft | 232 kts | 237° |
| 2026-05-04 13:12 | 51.93262 | 0.17322 | 4888 ft | 232 kts | 240° |
| 2026-05-04 13:13 | 51.92473 | 0.15040 | 4571 ft | 232 kts | 241° |
| 2026-05-04 13:13 | 51.91680 | 0.12771 | 4249 ft | 231 kts | 237° |
| 2026-05-04 13:13 | 51.90672 | 0.10807 | 3935 ft | 230 kts | 227° |
| 2026-05-04 13:13 | 51.89568 | 0.08922 | 3616 ft | 230 kts | 226° |
| 2026-05-04 13:14 | 51.88461 | 0.07066 | 3309 ft | 229 kts | 226° |
| 2026-05-04 13:14 | 51.87356 | 0.05216 | 3030 ft | 227 kts | 226° |
| 2026-05-04 13:14 | 51.86283 | 0.03426 | 2920 ft | 215 kts | 226° |
| 2026-05-04 13:14 | 51.85270 | 0.01737 | 2792 ft | 202 kts | 226° |
| 2026-05-04 13:15 | 51.84323 | 0.00159 | 2640 ft | 191 kts | 226° |
| 2026-05-04 13:15 | 51.83262 | -0.01078 | 2533 ft | 190 kts | 200° |
| 2026-05-04 13:15 | 51.81991 | -0.01639 | 2517 ft | 190 kts | 192° |
| 2026-05-04 13:15 | 51.80698 | -0.02081 | 2518 ft | 190 kts | 191° |
| 2026-05-04 13:16 | 51.79402 | -0.02495 | 2516 ft | 190 kts | 188° |
| 2026-05-04 13:16 | 51.78130 | -0.02143 | 2515 ft | 188 kts | 149° |
| 2026-05-04 13:16 | 51.77147 | -0.00810 | 2514 ft | 187 kts | 128° |
| 2026-05-04 13:16 | 51.76519 | 0.01008 | 2513 ft | 186 kts | 107° |
| 2026-05-04 13:17 | 51.76337 | 0.03069 | 2517 ft | 186 kts | 86° |
| 2026-05-04 13:17 | 51.76622 | 0.05084 | 2517 ft | 185 kts | 65° |
| 2026-05-04 13:17 | 51.77335 | 0.06794 | 2515 ft | 185 kts | 44° |
| 2026-05-04 13:17 | 51.78280 | 0.08205 | 2513 ft | 185 kts | 42° |
| 2026-05-04 13:18 | 51.79225 | 0.09614 | 2493 ft | 186 kts | 42° |
| 2026-05-04 13:18 | 51.80158 | 0.11004 | 2321 ft | 177 kts | 42° |
| 2026-05-04 13:18 | 51.81030 | 0.12306 | 2126 ft | 164 kts | 42° |
| 2026-05-04 13:18 | 51.81852 | 0.13532 | 1918 ft | 158 kts | 41° |
| 2026-05-04 13:19 | 51.82634 | 0.14700 | 1709 ft | 149 kts | 42° |
| 2026-05-04 13:19 | 51.83131 | 0.15443 | 1580 ft | 146 kts | 43° |
| 2026-05-04 13:19 | 51.84127 | 0.16915 | 1318 ft | 143 kts | 41° |
| 2026-05-04 13:19 | 51.84851 | 0.18003 | 1134 ft | 142 kts | 42° |
| 2026-05-04 13:20 | 51.85565 | 0.19076 | 946 ft | 142 kts | 42° |
| 2026-05-04 13:20 | 51.86285 | 0.20159 | 767 ft | 141 kts | 42° |
| 2026-05-04 13:20 | 51.87007 | 0.21236 | 579 ft | 141 kts | 42° |
| 2026-05-04 13:20 | 51.87724 | 0.22317 | 390 ft | 140 kts | 42° |
| 2026-05-04 13:21 | 51.88415 | 0.23346 | 334 ft | 122 kts | 43° |
| 2026-05-04 13:21 | 51.88855 | 0.24013 | 336 ft | 57 kts | 43° |
| 2026-05-04 13:21 | 51.89063 | 0.24371 | 336 ft | 39 kts | 64° |
| 2026-05-04 13:21 | 51.89145 | 0.24708 | 345 ft | 22 kts | 69° |
| 2026-05-04 13:22 | 51.89172 | 0.24831 | 344 ft | 3 kts | 81° |
| 2026-05-04 13:22 | 51.89172 | 0.24833 | 342 ft | 0 kts | 82° |
| 2026-05-04 13:22 | 51.89158 | 0.24899 | 351 ft | 12 kts | 104° |
| 2026-05-04 13:23 | 51.89193 | 0.25008 | 350 ft | 11 kts | 48° |
| 2026-05-04 13:23 | 51.89236 | 0.25104 | 353 ft | 12 kts | 58° |
| 2026-05-04 13:23 | 51.89297 | 0.25229 | 348 ft | 14 kts | 43° |
| 2026-05-04 13:23 | 51.89369 | 0.25337 | 350 ft | 14 kts | 43° |
| 2026-05-04 13:24 | 51.89438 | 0.25442 | 355 ft | 14 kts | 43° |
| 2026-05-04 13:24 | 51.89508 | 0.25546 | 352 ft | 13 kts | 43° |
| 2026-05-04 13:24 | 51.89575 | 0.25646 | 348 ft | 13 kts | 42° |
| 2026-05-04 13:25 | 51.89774 | 0.25938 | 352 ft | 23 kts | 43° |
| 2026-05-04 13:25 | 51.89795 | 0.26096 | 346 ft | 17 kts | 123° |
| 2026-05-04 13:25 | 51.89731 | 0.26215 | 351 ft | 11 kts | 149° |
| 2026-05-04 13:25 | 51.89672 | 0.26279 | 353 ft | 10 kts | 138° |
| 2026-05-04 13:26 | 51.89639 | 0.26331 | 345 ft | 9 kts | 132° |
| 2026-05-04 13:26 | 51.89596 | 0.26337 | 345 ft | 7 kts | 221° |
| 2026-05-04 13:26 | 51.89573 | 0.26303 | 348 ft | 0 kts | 222° |